This is the latest recevied weather packets stored in our database for station/object WG5EEK. If no packets are shown the sender has not sent any weather packets the latest 10 day(s).
| Time | Temp. | Humidity | Pressure | Rain* | Wind** | Luminosity | Snow |
|---|---|---|---|---|---|---|---|
| 1777659482 | 21.11° C | 52% | 981.4 hPa | - | - | - | - |
| 1777658402 | 21.11° C | 55% | 981.5 hPa | - | - | - | - |
| 1777657321 | 20.56° C | 57% | 982.2 hPa | - | - | - | - |
| 1777655882 | 20.56° C | 58% | 982.8 hPa | - | - | - | - |
| 1777654827 | 20° C | 59% | 983.4 hPa | - | - | - | - |
| 1777653363 | 19.44° C | 59% | 984 hPa | - | - | - | - |
| 1777648683 | 17.78° C | 63% | 987.3 hPa | - | - | - | - |
| 1777646186 | 16.11° C | 65% | 988.5 hPa | - | - | - | - |
| 1777644005 | 15.56° C | 69% | 989.8 hPa | - | - | - | - |
| 1777640403 | 14.44° C | 81% | 991.7 hPa | - | - | - | - |
| 1777639322 | 13.33° C | 83% | 992.5 hPa | - | - | - | - |
| 1777637521 | 12.78° C | 83% | 993.9 hPa | - | - | - | - |
| 1777633562 | 12.78° C | 83% | 993.9 hPa | - | - | - | - |
| 1777633202 | 12.78° C | 83% | 993.7 hPa | - | - | - | - |
| 1777632122 | 12.22° C | 82% | 994.2 hPa | - | - | - | - |
| 1777629962 | 12.78° C | 82% | 992.9 hPa | - | - | - | - |
| 1777627442 | 13.33° C | 82% | 992.2 hPa | - | - | - | - |
| 1777622762 | 13.33° C | 81% | 992.1 hPa | - | - | - | - |
| 1777617362 | 13.89° C | 80% | 991.1 hPa | - | - | - | - |
| 1777615561 | 14.44° C | 79% | 990.9 hPa | - | - | - | - |
| 1777614842 | 14.44° C | 80% | 991 hPa | - | - | - | - |
| 1777614122 | 14.44° C | 79% | 990.4 hPa | - | - | - | - |
| 1777611626 | 15° C | 78% | 989.6 hPa | - | - | - | - |
| 1777608363 | 15.56° C | 76% | 988.6 hPa | - | - | - | - |
| 1777605842 | 16.11° C | 75% | 987.7 hPa | - | - | - | - |
* Rain since midnight (hover to see other rain measurements)
** Current wind speed in m/s (hover to see current wind gust speed)